• Join FlightAware (Why Join?)
  • Login
  • US Flag 
03:31AM EDT


 

Airport Tracker/Info


-or-


 

Live Flight TrackerFlight Track Log ✈ AVN10 ✈ 14-Nov-2013 ✈ NVVV / VLI - YSSY / SYD

Flight Track Log - Related Links

Times and Time Zones

All times are in EST time to prevent confusion due to time zone crossing. See the AVN10 flight status page for this flight to view local times or setup timezone preferences in your user account.

Time Position Orientation Groundspeed Altitude Reporting Facility
EST Latitude Longitude Course Direction KTS MPH feet Rate Location/Type
02:56PM -18.0113 168.1608 206° Southwest  Level FlightAware Approximate
02:57PM -18.1153 168.1077 206° Southwest  Level FlightAware Approximate
02:58PM -18.2193 168.0545 206° Southwest  Level FlightAware Approximate
02:59PM -18.3232 168.0013 206° Southwest  Level FlightAware Approximate
03:00PM -18.4271 167.9480 206° Southwest  Level FlightAware Approximate
03:01PM -18.5148 167.8685 204° Southwest  Level Estimated
03:02PM -18.6206 167.8195 204° Southwest  Level FlightAware Approximate
03:03PM -18.7264 167.7704 204° Southwest  Level FlightAware Approximate
03:04PM -18.8322 167.7212 204° Southwest  Level FlightAware Approximate
03:05PM -18.9380 167.6719 204° Southwest  Level FlightAware Approximate
03:06PM -19.0437 167.6226 204° Southwest  Level FlightAware Approximate
03:07PM -19.1495 167.5732 204° Southwest  Level FlightAware Approximate
03:08PM -19.2552 167.5238 204° Southwest  Level FlightAware Approximate
03:09PM -19.3610 167.4743 204° Southwest  Level FlightAware Approximate
03:10PM -19.4667 167.4247 204° Southwest  Level FlightAware Approximate
03:11PM -19.5724 167.3751 204° Southwest  Level FlightAware Approximate
03:12PM -19.6780 167.3254 204° Southwest  Level FlightAware Approximate
03:13PM -19.7837 167.2756 204° Southwest  Level FlightAware Approximate
03:14PM -19.8894 167.2258 204° Southwest  Level FlightAware Approximate
03:15PM -19.9950 167.1759 204° Southwest  Level FlightAware Approximate
03:16PM -20.1006 167.1259 204° Southwest  Level FlightAware Approximate
03:17PM -20.2062 167.0759 204° Southwest  Level FlightAware Approximate
03:18PM -20.3118 167.0258 204° Southwest  Level FlightAware Approximate
03:19PM -20.4174 166.9756 204° Southwest  Level FlightAware Approximate
03:20PM -20.5230 166.9254 204° Southwest  Level FlightAware Approximate
03:21PM -20.6286 166.8751 204° Southwest  Level FlightAware Approximate
03:21PM -20.4090 166.9690 204° Southwest 401 461 38,000  Level FlightAware
03:22PM -20.7341 166.8247 204° Southwest  Level FlightAware Approximate
03:22PM -20.4670 166.9420 204° Southwest 401 461 38,000  Level FlightAware
03:22PM -20.5260 166.9140 204° Southwest 401 461 38,000  Level FlightAware
03:23PM -20.6310 166.8650 204° Southwest 400 460 38,000  Level FlightAware
03:24PM -20.6890 166.8380 204° Southwest 401 461 38,000  Level FlightAware
03:24PM -20.7390 166.8140 204° Southwest 403 464 38,000  Level FlightAware
03:25PM -20.8040 166.7840 203° Southwest 406 467 38,000  Level FlightAware
03:26PM -20.8670 166.7540 204° Southwest 406 467 38,000  Level FlightAware
03:26PM -20.9210 166.7280 204° Southwest 406 467 38,000  Level FlightAware
03:27PM -20.9770 166.7020 203° Southwest 406 467 38,000  Level FlightAware
03:27PM -21.0280 166.6780 204° Southwest 406 467 38,000  Level FlightAware
03:28PM -21.0840 166.6510 204° Southwest 406 467 38,000  Level FlightAware
03:28PM -21.1450 166.6220 204° Southwest 406 467 38,000  Level FlightAware
03:29PM -21.2040 166.5940 204° Southwest 408 470 38,000  Level FlightAware
03:30PM -21.2640 166.5660 204° Southwest 408 470 38,000  Level FlightAware
03:30PM -21.3220 166.5380 204° Southwest 408 470 38,000  Level FlightAware
03:31PM -21.3950 166.5040 203° Southwest 409 471 38,000  Level FlightAware
03:32PM -21.4800 166.4630 204° Southwest 410 472 38,000  Level FlightAware
03:32PM -21.5490 166.4300 204° Southwest 411 473 38,000  Level FlightAware
03:33PM -21.6120 166.4000 204° Southwest 411 473 38,000  Level FlightAware
03:34PM -21.6800 166.3680 204° Southwest 412 474 38,000  Level FlightAware
03:34PM -21.7520 166.3330 204° Southwest 413 475 38,000  Level FlightAware
03:35PM -21.8420 166.2900 204° Southwest 414 476 38,000  Level FlightAware
03:36PM -21.8920 166.2660 204° Southwest 414 476 38,000  Level FlightAware
03:37PM -21.9980 166.2120 205° Southwest 412 474 38,000  Level FlightAware
03:37PM -22.0450 166.1700 220° Southwest 407 468 38,000  Level FlightAware
03:38PM -22.1360 166.0750 224° Southwest 411 473 38,000  Level FlightAware
03:39PM -22.1710 166.0380 224° Southwest 412 474 38,000  Level FlightAware
03:39PM -22.2180 165.9890 224° Southwest 415 478 38,000  Level FlightAware
03:40PM -22.2950 165.9080 224° Southwest 417 480 38,000  Level FlightAware
03:41PM -22.3550 165.8460 224° Southwest 406 467 38,000  Level FlightAware
03:41PM -22.4030 165.7950 224° Southwest 403 464 38,000  Level FlightAware
03:43PM -22.4910 165.7010 225° Southwest 403 464 38,000  Level FlightAware
03:43PM -22.5470 165.6430 224° Southwest 403 464 38,000  Level FlightAware
03:44PM -22.6090 165.5770 224° Southwest 412 474 38,000  Level FlightAware
03:45PM -22.6520 165.5320 224° Southwest 414 476 38,000  Level FlightAware
03:45PM -22.6950 165.4860 225° Southwest 415 478 38,000  Level FlightAware
03:46PM -22.7550 165.4220 225° Southwest 417 480 38,000  Level FlightAware
03:47PM -22.8120 165.3620 224° Southwest 418 481 38,000  Level FlightAware
03:47PM -22.8530 165.3180 225° Southwest 418 481 38,000  Level FlightAware
03:48PM -22.9140 165.2530 224° Southwest 417 480 38,000  Level FlightAware
03:49PM -22.9930 165.1690 224° Southwest 417 480 38,000  Level FlightAware
03:49PM -23.0480 165.1100 225° Southwest 417 480 38,000  Level FlightAware
03:50PM -23.1260 165.0270 224° Southwest 418 481 38,000  Level FlightAware
03:51PM -23.1680 164.9820 225° Southwest 417 480 38,000  Level FlightAware
03:51PM -23.2180 164.9280 225° Southwest 417 480 38,000  Level FlightAware
03:52PM -23.2790 164.8630 224° Southwest 418 481 38,000  Level FlightAware
03:53PM -23.3520 164.7860 224° Southwest 418 481 38,000  Level FlightAware
03:54PM -23.3950 164.7420 223° Southwest 418 481 38,000  Level FlightAware
03:55PM -23.4680 164.6640 224° Southwest 418 481 38,000  Level FlightAware
03:55PM -23.5100 164.6200 224° Southwest 418 481 38,000  Level FlightAware
03:56PM -23.5390 164.5900 223° Southwest 418 481 38,000  Level FlightAware
03:56PM -23.5830 164.5440 224° Southwest 418 481 38,000  Level FlightAware
03:57PM -23.6250 164.4990 224° Southwest 418 481 38,000  Level FlightAware
03:58PM -23.6690 164.4530 224° Southwest 418 481 38,000  Level FlightAware
03:58PM -23.7130 164.4060 224° Southwest 418 481 38,000  Level FlightAware
03:59PM -23.7550 164.3620 224° Southwest 418 481 38,000  Level FlightAware
03:59PM -23.7980 164.3170 224° Southwest 418 481 38,000  Level FlightAware
04:00PM -23.8260 164.2870 224° Southwest 418 481 38,000  Level FlightAware
04:01PM -23.9010 164.2080 224° Southwest 418 481 38,000  Level FlightAware
04:02PM -23.9810 164.1230 224° Southwest 418 481 38,000  Level FlightAware
04:05PM -24.1796 163.9019 225° Southwest  Level FlightAware Approximate
04:06PM -24.2606 163.8114 226° Southwest  Level FlightAware Approximate
04:07PM -24.3415 163.7209 226° Southwest  Level FlightAware Approximate
04:08PM -24.4223 163.6302 226° Southwest  Level FlightAware Approximate
04:09PM -24.5031 163.5394 226° Southwest  Level FlightAware Approximate
04:09PM -24.8139 163.1834 221° Southwest 38,000  Level Aus ATC (Calculated)
04:11PM -24.9168 163.0698 225° Southwest  Level FlightAware Approximate
04:12PM -24.9911 162.9875 225° Southwest  Level FlightAware Approximate
04:12PM -25.1411 162.8172 221° Southwest 38,000  Level Aus ATC (Calculated)
04:13PM -24.9168 163.0698 45° Northeast  Level FlightAware Approximate
04:14PM -25.0396 162.9324 46° Northeast  Level FlightAware Approximate
04:15PM -24.9661 163.0156 46° Northeast  Level FlightAware Approximate
04:15PM -25.3877 162.5393 221° Southwest 38,000  Level Aus ATC (Calculated)
04:16PM -25.4785 162.4366 221° Southwest 38,000  Level Aus ATC (Calculated)
04:17PM -25.5318 162.3717 225° Southwest  Level Estimated
04:18PM -25.6152 162.2814 226° Southwest  Level FlightAware Approximate
04:19PM -25.6898 162.1965 226° Southwest  Level FlightAware Approximate
04:20PM -25.7642 162.1116 226° Southwest  Level FlightAware Approximate
04:21PM -25.8387 162.0266 226° Southwest  Level FlightAware Approximate
04:22PM -25.9130 161.9414 226° Southwest  Level FlightAware Approximate
04:23PM -25.9874 161.8562 226° Southwest  Level FlightAware Approximate
04:23PM -26.1795 161.6351 221° Southwest 38,000  Level Aus ATC (Calculated)
04:25PM -26.3240 161.4680 226° Southwest  Level FlightAware Approximate
04:26PM -26.3981 161.3821 226° Southwest  Level FlightAware Approximate
04:27PM -26.4721 161.2962 226° Southwest  Level FlightAware Approximate
04:28PM -26.5460 161.2101 226° Southwest  Level FlightAware Approximate
04:29PM -26.6199 161.1239 226° Southwest  Level FlightAware Approximate
04:30PM -26.6938 161.0376 226° Southwest  Level FlightAware Approximate
04:31PM -26.7676 160.9512 226° Southwest  Level FlightAware Approximate
04:32PM -26.8413 160.8647 226° Southwest  Level FlightAware Approximate
04:33PM -26.9150 160.7780 226° Southwest  Level FlightAware Approximate
04:34PM -26.9886 160.6913 226° Southwest  Level FlightAware Approximate
04:35PM -27.0622 160.6044 226° Southwest  Level FlightAware Approximate
04:35PM -27.4814 160.1062 218° Southwest 38,000  Level Aus ATC (Calculated)
04:36PM -27.1357 160.5174 226° Southwest  Level FlightAware Approximate
04:37PM -27.5631 160.0084 227° Southwest  Level FlightAware Approximate
04:37PM -27.6752 159.8739 217° Southwest 38,000  Level Aus ATC (Calculated)
04:38PM -27.6363 159.9206 227° Southwest  Level FlightAware Approximate
04:38PM -27.7115 159.8302 217° Southwest 38,000  Level Aus ATC (Calculated)
04:39PM -27.8475 159.6662 217° Southwest 38,000  Level Aus ATC (Calculated)
04:41PM -27.9289 159.5677 227° Southwest  Level FlightAware Approximate
04:42PM -28.0018 159.4793 227° Southwest  Level FlightAware Approximate
04:43PM -28.0746 159.3909 227° Southwest  Level FlightAware Approximate
04:44PM -28.1474 159.3022 227° Southwest  Level FlightAware Approximate
04:44PM -28.2542 159.1718 214° Southwest 36,000  Level Aus ATC (Calculated)
04:46PM -28.0638 159.1718 North  Level FlightAware Approximate
04:47PM -28.1706 159.1718 180° South  Level FlightAware Approximate
04:48PM -28.2773 159.1718 180° South  Level FlightAware Approximate
04:48PM -28.6210 158.7204 210° Southwest 36,000  Level Aus ATC (Calculated)
04:50PM -28.4908 158.8813 47° Northeast  Level FlightAware Approximate
04:50PM -28.7836 158.5188 207° Southwest 36,000  Level Aus ATC (Calculated)
04:50PM -28.7836 158.5188 207° Southwest 36,000 60 Level Aus ATC (Calculated)
04:52PM -28.6493 158.6855 47° Northeast  Level FlightAware Approximate
04:53PM -28.5766 158.7754 47° Northeast  Level FlightAware Approximate
04:54PM -28.5039 158.8652 47° Northeast  Level FlightAware Approximate
04:55PM -28.4311 158.9548 47° Northeast  Level FlightAware Approximate
04:55PM -29.1886 158.0121 191° South 36,000  Level Aus ATC (Calculated)
04:57PM -29.0386 158.2005 48° Northeast  Level FlightAware Approximate
04:58PM -28.9622 158.2961 48° Northeast  Level FlightAware Approximate
04:59PM -28.8857 158.3916 48° Northeast  Level FlightAware Approximate
05:00PM -28.8092 158.4869 48° Northeast  Level FlightAware Approximate
05:01PM -28.7327 158.5821 47° Northeast  Level FlightAware Approximate
05:02PM -28.8075 158.4851 227° Southwest  Level Estimated
05:03PM -28.8841 158.3899 227° Southwest  Level FlightAware Approximate
05:04PM -28.9606 158.2945 227° Southwest  Level FlightAware Approximate
05:05PM -29.0370 158.1989 228° Southwest  Level FlightAware Approximate
05:05PM -29.9927 156.9866 88° East 36,000  Level Aus ATC (Calculated)
05:07PM -30.1422 156.7929 228° Southwest  Level FlightAware Approximate
05:08PM -30.2175 156.6951 228° Southwest  Level FlightAware Approximate
05:09PM -30.2927 156.5970 228° Southwest  Level FlightAware Approximate
05:10PM -30.3679 156.4989 228° Southwest  Level FlightAware Approximate
05:10PM -30.4315 156.4156 70° East 36,000  Level Aus ATC (Calculated)
05:11PM -30.5065 156.3171 228° Southwest  Level FlightAware Approximate
05:11PM -30.5110 156.3112 68° East 36,000  Level Aus ATC (Calculated)
05:12PM -30.5904 156.2067 66° East 36,000 960 Level Aus ATC (Calculated)
05:13PM -29.9647 157.8333 228° Southwest 433 498 38,200 1,200 Climbing Aus ATC (RADAR)
05:13PM -30.0016 157.8001 218° Southwest 415 478 38,200  Level Aus ATC (RADAR)
05:14PM -30.0628 157.7461 217° Southwest 414 476 38,200  Level Aus ATC (RADAR)
05:15PM -30.1512 157.6658 218° Southwest 423 487 38,200  Level Aus ATC (RADAR)
05:15PM -30.1746 157.6466 215° Southwest 423 487 38,200  Level Aus ATC (RADAR)
05:16PM -30.2765 157.5535 218° Southwest 426 490 38,200  Level Aus ATC (RADAR)
05:17PM -30.3272 157.5073 218° Southwest 412 474 38,200  Level Aus ATC (RADAR)
05:18PM -30.4510 157.3953 218° Southwest 419 482 38,200  Level Aus ATC (RADAR)
05:19PM -30.4741 157.3746 218° Southwest 419 482 38,200  Level Aus ATC (RADAR)
05:19PM -30.5288 157.3250 218° Southwest 422 486 38,200  Level Aus ATC (RADAR)
05:20PM -30.5894 157.2702 218° Southwest 422 486 38,200  Level Aus ATC (RADAR)
05:21PM -30.6659 157.2003 218° Southwest 362 417 38,200 -120 Level Aus ATC (RADAR)
05:21PM -30.7347 157.1377 218° Southwest 409 471 38,100 -120 Descending Aus ATC (RADAR)
05:22PM -30.7731 157.1028 218° Southwest 413 475 38,100  Level Aus ATC (RADAR)
05:23PM -30.8738 157.0108 218° Southwest 423 487 38,100 60 Level Aus ATC (RADAR)
05:23PM -30.9121 156.9759 218° Southwest 422 486 38,200 120 Climbing Aus ATC (RADAR)
05:24PM -30.9504 156.9409 218° Southwest 422 486 38,200  Level Aus ATC (RADAR)
05:24PM -31.0040 156.8916 218° Southwest 422 486 38,200  Level Aus ATC (RADAR)
05:25PM -31.0886 156.8139 218° Southwest 422 486 38,200  Level Aus ATC (RADAR)
05:26PM -31.1350 156.7711 218° Southwest 424 488 38,200  Level Aus ATC (RADAR)
05:27PM -31.2047 156.7070 218° Southwest 426 490 38,200  Level Aus ATC (RADAR)
05:27PM -31.2437 156.6713 218° Southwest 427 491 38,200  Level Aus ATC (RADAR)
05:28PM -31.3675 156.5566 218° Southwest 428 493 38,200  Level Aus ATC (RADAR)
05:29PM -31.4064 156.5207 218° Southwest 428 493 38,200  Level Aus ATC (RADAR)
05:29PM -31.4452 156.4844 219° Southwest 429 494 38,200  Level Aus ATC (RADAR)
05:30PM -31.4997 156.4337 218° Southwest 430 495 38,200  Level Aus ATC (RADAR)
05:30PM -31.5703 156.3684 218° Southwest 432 497 38,200  Level Aus ATC (RADAR)
05:31PM -31.6326 156.3103 218° Southwest 431 496 38,200 -180 Level Aus ATC (RADAR)
05:32PM -31.7026 156.2446 219° Southwest 431 496 38,000 -180 Descending Aus ATC (RADAR)
05:32PM -31.7414 156.2085 218° Southwest 430 495 38,000  Level Aus ATC (RADAR)
05:34PM -31.8483 156.0566 230° Southwest 430 495 38,000  Level Aus ATC (RADAR)
05:34PM -31.8768 156.0126 233° Southwest 422 486 38,000  Level Aus ATC (RADAR)
05:35PM -31.9175 155.9509 232° Southwest 416 479 38,000  Level Aus ATC (RADAR)
05:35PM -31.9702 155.8712 232° Southwest 414 476 38,000  Level Aus ATC (RADAR)
05:36PM -32.0122 155.8083 232° Southwest 415 478 38,000  Level Aus ATC (RADAR)
05:37PM -32.0440 155.7600 232° Southwest 420 483 38,000  Level FlightAware
05:37PM -32.0664 155.7274 232° Southwest 417 480 38,000  Level Aus ATC (RADAR)
05:37PM -32.0962 155.6823 232° Southwest 418 481 38,000  Level Aus ATC (RADAR)
05:37PM -32.0950 155.6840 232° Southwest 421 484 38,000  Level FlightAware
05:38PM -32.1490 155.6020 232° Southwest 423 487 38,000  Level FlightAware
05:39PM -32.1780 155.5580 232° Southwest 423 487 38,000  Level FlightAware
05:39PM -32.2430 155.4600 232° Southwest 424 488 38,000  Level FlightAware
05:40PM -32.3065 155.3644 232° Southwest 422 486 38,000  Level Aus ATC (RADAR)
05:40PM -32.3220 155.3400 232° Southwest 421 484 38,000  Level FlightAware
05:41PM -32.3900 155.2370 232° Southwest 419 482 38,000  Level FlightAware
05:42PM -32.4379 155.1649 232° Southwest 419 482 38,000  Level Aus ATC (RADAR)
05:42PM -32.4390 155.1620 232° Southwest 419 482 38,000  Level FlightAware
05:43PM -32.5080 155.0560 232° Southwest 415 478 38,000  Level FlightAware
05:44PM -32.5430 155.0030 232° Southwest 414 476 38,000  Level FlightAware
05:44PM -32.5827 154.9422 232° Southwest 413 475 38,000  Level Aus ATC (RADAR)
05:45PM -32.6175 154.8888 232° Southwest 411 473 38,000  Level Aus ATC (RADAR)
05:45PM -32.6160 154.8910 232° Southwest 413 475 38,000  Level FlightAware
05:46PM -32.6820 154.7880 233° Southwest 413 475 38,000  Level FlightAware
05:46PM -32.7420 154.6970 232° Southwest 413 475 38,000  Level FlightAware
05:47PM -32.7990 154.6090 232° Southwest 413 475 38,000  Level FlightAware
05:48PM -32.8320 154.5570 232° Southwest 413 475 38,000  Level FlightAware
05:48PM -32.8437 154.5395 232° Southwest 412 474 38,000  Level Aus ATC (RADAR)
05:49PM -32.8920 154.4640 232° Southwest 413 475 38,000  Level FlightAware
05:49PM -32.9018 154.4493 232° Southwest 412 474 38,000  Level Aus ATC (RADAR)
05:49PM -32.9400 154.3890 233° Southwest 413 475 38,000  Level FlightAware
05:50PM -32.9980 154.2990 233° Southwest 416 479 38,000  Level FlightAware
05:50PM -33.0061 154.2868 233° Southwest 415 478 38,000  Level Aus ATC (RADAR)
05:51PM -33.0470 154.2230 233° Southwest 416 479 38,000  Level Aus ATC (RADAR)
05:51PM -33.0560 154.2080 233° Southwest 418 481 38,000  Level FlightAware
05:51PM -33.0990 154.1410 233° Southwest 419 482 38,000  Level FlightAware
05:52PM -33.1463 154.0667 233° Southwest 420 483 38,000  Level Aus ATC (RADAR)
05:52PM -33.1620 154.0410 232° Southwest 421 484 38,000  Level FlightAware
05:53PM -33.1758 154.0210 232° Southwest 418 481 38,000  Level Aus ATC (RADAR)
05:53PM -33.2050 153.9750 232° Southwest 421 484 38,000  Level FlightAware
05:54PM -33.2520 153.9006 232° Southwest 420 483 38,000  Level Aus ATC (RADAR)
05:54PM -33.2720 153.8690 232° Southwest 419 482 38,000  Level FlightAware
05:54PM -33.2970 153.8300 232° Southwest 419 482 38,000  Level FlightAware
05:54PM -33.3126 153.8051 232° Southwest 409 471 38,000  Level Aus ATC (RADAR)
05:55PM -33.3533 153.7411 232° Southwest 404 465 38,000  Level Aus ATC (RADAR)
05:55PM -33.3710 153.7120 232° Southwest 419 482 38,000  Level FlightAware
05:56PM -33.4210 153.6320 233° Southwest 418 481 38,000  Level FlightAware
05:57PM -33.4860 153.5290 233° Southwest 416 479 38,000  Level FlightAware
05:58PM -33.5250 153.4674 233° Southwest 415 478 38,000  Level Aus ATC (RADAR)
05:58PM -33.5200 153.4750 233° Southwest 415 478 38,000  Level FlightAware
05:58PM -33.5649 153.4030 233° Southwest 414 476 38,000  Level Aus ATC (RADAR)
05:58PM -33.5680 153.3980 233° Southwest 415 478 38,000  Level FlightAware
05:59PM -33.6410 153.2810 233° Southwest 413 475 38,000  Level FlightAware
05:59PM -33.6450 153.2748 233° Southwest 413 475 38,000  Level Aus ATC (RADAR)
06:00PM -33.6890 153.1770 241° Southwest 406 467 38,000 -900 Level FlightAware
06:01PM -33.7262 153.0611 241° Southwest 400 460 36,500 -1,560 Descending Aus ATC (RADAR)
06:01PM -33.7240 153.0680 241° Southwest 399 459 36,600 -3,120 Climbing FlightAware
06:02PM -33.7490 152.9880 241° Southwest 404 465 34,700 -3,240 Descending Aus ATC (RADAR)
06:02PM -33.7560 152.9650 241° Southwest 419 482 34,100 -2,880 Descending FlightAware
06:02PM -33.7843 152.8780 241° Southwest 426 490 32,300 -2,820 Descending Aus ATC (RADAR)
06:03PM -33.7890 152.8610 249° West 427 491 31,900 -2,880 Descending FlightAware
06:03PM -33.7963 152.8409 249° West 419 482 31,500 -2,580 Descending Aus ATC (RADAR)
06:03PM -33.8130 152.7830 250° West 425 489 30,400 -2,460 Descending FlightAware
06:04PM -33.8460 152.6790 249° West 414 476 28,400 -2,520 Descending FlightAware
06:05PM -33.8820 152.5641 249° West 405 466 26,300 -2,280 Descending Aus ATC (RADAR)
06:05PM -33.8830 152.5610 249° West 400 460 26,200 -2,460 Descending FlightAware
06:05PM -33.9054 152.4889 249° West 388 447 24,800 -2,340 Descending Aus ATC (RADAR)
06:06PM -33.9060 152.4850 249° West 388 447 24,800 -2,040 Level FlightAware
06:06PM -33.9380 152.3810 250° West 372 428 22,800 -2,220 Descending FlightAware
06:07PM -33.9700 152.2790 249° West 355 409 20,900 -2,700 Descending FlightAware
06:07PM -33.9744 152.2635 251° West 354 407 20,300 -2,220 Descending FlightAware ADS-B (YSSY / SYD)
06:08PM -33.9960 152.1940 249° West 342 394 19,200 -1,920 Descending FlightAware
06:09PM -34.0309 152.0712 251° West 322 371 16,900 -2,040 Descending FlightAware ADS-B
06:10PM -34.0305 152.0264 271° West 314 361 16,100 -1,980 Descending FlightAware ADS-B
06:10PM -34.0238 151.9583 277° West 309 356 14,800 -2,100 Descending FlightAware ADS-B
06:11PM -34.0186 151.9053 277° West 305 351 13,700 -1,920 Descending FlightAware ADS-B
06:11PM -34.0131 151.8515 277° West 304 350 12,800 -1,860 Descending FlightAware ADS-B
06:12PM -34.0062 151.7838 277° West 302 348 11,500 -1,980 Descending FlightAware ADS-B
06:13PM -34.0005 151.7263 277° West 296 341 10,300 -1,200 Descending FlightAware ADS-B
06:13PM -33.9945 151.6700 277° West 273 314 10,100 -780 Descending FlightAware ADS-B
06:14PM -33.9900 151.6263 277° West 269 310 9,500 -1,320 Descending FlightAware ADS-B
06:14PM -33.9866 151.5940 277° West 264 304 9,000 -960 Descending FlightAware ADS-B (YSSY / SYD)
06:14PM -33.9850 151.5789 277° West 267 307 9,000  Level FlightAware ADS-B
06:15PM -33.9825 151.5552 277° West 249 287 9,000  Level FlightAware ADS-B (YSSY / SYD)
06:15PM -33.9804 151.5344 277° West 249 287 9,000  Level FlightAware ADS-B
06:15PM -33.9778 151.5102 277° West 252 290 9,000  Level FlightAware ADS-B (YSSY / SYD)
06:15PM -33.9749 151.4821 277° West 254 292 9,000  Level FlightAware ADS-B (YSSY / SYD)
06:16PM -33.9726 151.4598 277° West 254 292 9,000  Level FlightAware ADS-B (YSSY / SYD)
06:16PM -33.9698 151.4335 277° West 254 292 9,000  Level FlightAware ADS-B
06:16PM -33.9677 151.4133 277° West 251 289 9,000  Level FlightAware ADS-B (YSSY / SYD)
06:17PM -33.9649 151.3868 277° West 252 290 9,000  Level FlightAware ADS-B (YSSY / SYD)
06:17PM -33.9621 151.3596 277° West 252 290 9,000  Level FlightAware ADS-B
06:17PM -33.9600 151.3383 277° West 252 290 9,000  Level FlightAware ADS-B
06:17PM -33.9579 151.3154 276° West 260 299 9,000  Level FlightAware ADS-B
06:18PM -33.9560 151.2939 276° West 263 303 9,000  Level FlightAware ADS-B (YSSY / SYD)
06:18PM -33.9536 151.2666 276° West 257 296 9,000  Level FlightAware ADS-B
06:18PM -33.9517 151.2452 276° West 256 295 9,000  Level FlightAware ADS-B
06:18PM -33.9498 151.2254 277° West 257 296 9,000  Level FlightAware ADS-B
06:19PM -33.9478 151.2037 276° West 254 292 9,000  Level FlightAware ADS-B
06:19PM -33.9445 151.1723 277° West 256 295 9,000  Level FlightAware ADS-B (YSSY / SYD)
06:19PM -33.9452 151.1620 265° West 258 297 9,000  Level FlightAware ADS-B
06:19PM -33.9503 151.1444 251° West 262 302 9,000 -240 Level FlightAware ADS-B (YSSY / SYD)
06:20PM -33.9575 151.1232 248° West 263 303 8,900 -1,200 Descending FlightAware ADS-B
06:20PM -33.9648 151.1020 248° West 267 307 8,400 -1,800 Descending FlightAware ADS-B (YSSY / SYD)
06:20PM -33.9669 151.0956 248° West 267 307 8,300 -1,200 Descending FlightAware ADS-B
06:20PM -33.9741 151.0751 247° West 267 307 8,000 -1,200 Descending FlightAware ADS-B (YSSY / SYD)
06:21PM -33.9953 151.0525 221° Southwest 275 316 7,500 -1,200 Descending FlightAware ADS-B (YSSY / SYD)
06:21PM -34.0104 151.0495 190° South 279 321 7,300 -1,200 Descending FlightAware ADS-B (YSSY / SYD)
06:21PM -34.0239 151.0517 172° South 286 329 7,100 -1,620 Descending FlightAware ADS-B (YSSY / SYD)
06:21PM -34.0498 151.0588 167° South 285 328 6,500 -1,440 Descending FlightAware ADS-B (YSSY / SYD)
06:22PM -34.0866 151.0684 168° South 275 316 5,900 -1,080 Descending FlightAware ADS-B (YSSY / SYD)
06:22PM -34.1148 151.0759 168° South 263 303 5,600 -600 Descending FlightAware ADS-B (YSSY / SYD)
06:23PM -34.1368 151.0818 168° South 249 287 5,500 -360 Descending FlightAware ADS-B (YSSY / SYD)
06:23PM -34.1584 151.0875 168° South 243 280 5,400 -540 Descending FlightAware ADS-B (YSSY / SYD)
06:23PM -34.1747 151.0914 169° South 240 276 5,200 -420 Descending FlightAware ADS-B
06:23PM -34.1900 151.0951 169° South 239 275 5,200  Level FlightAware ADS-B
06:23PM -34.1976 151.0970 168° South 238 274 5,200 -480 Level FlightAware ADS-B (YSSY / SYD)
06:24PM -34.2190 151.1101 153° Southeast 247 284 5,000 -480 Descending FlightAware ADS-B (YSSY / SYD)
06:24PM -34.2227 151.1161 127° Southeast 250 288 5,000 -960 Level FlightAware ADS-B
06:24PM -34.2263 151.1263 113° Southeast 256 295 4,800 -1,140 Descending FlightAware ADS-B (YSSY / SYD)
06:24PM -34.2263 151.1263 113° Southeast 259 298 4,700 -660 Descending FlightAware ADS-B (YSSY / SYD)
06:24PM -34.2253 151.1522 87° East 256 295 4,600 -1,020 Descending FlightAware ADS-B (YSSY / SYD)
06:24PM -34.2246 151.1539 67° East 249 287 4,400 -600 Descending FlightAware ADS-B
06:25PM -34.2087 151.1738 46° Northeast 244 281 4,400 -300 Level FlightAware ADS-B (YSSY / SYD)
06:25PM -34.1982 151.1782 19° North 244 281 4,300 -720 Descending FlightAware ADS-B (YSSY / SYD)
06:25PM -34.1827 151.1835 16° North 243 280 4,100 -600 Descending FlightAware ADS-B
06:25PM -34.1629 151.1902 16° North 229 264 4,000 -540 Descending FlightAware ADS-B
06:26PM -34.1483 151.1953 16° North 215 247 3,800 -840 Descending FlightAware ADS-B (YSSY / SYD)
06:26PM -34.1284 151.2023 16° North 205 236 3,500 -900 Descending FlightAware ADS-B (YSSY / SYD)
06:26PM -34.1097 151.2086 16° North 196 226 3,200 -1,140 Descending FlightAware ADS-B (YSSY / SYD)
06:27PM -34.1000 151.2119 16° North 194 223 2,800 -1,440 Descending FlightAware ADS-B
06:27PM -34.0935 151.2130 North 193 222 2,600 -1,500 Descending FlightAware ADS-B
06:27PM -34.0811 151.2114 354° North 193 222 2,400 -1,260 Descending FlightAware ADS-B (YSSY / SYD)
06:27PM -34.0669 151.2072 346° North 193 222 2,100 -1,200 Descending FlightAware ADS-B (YSSY / SYD)
06:27PM -34.0509 151.2031 348° North 185 213 1,700 -1,200 Descending FlightAware ADS-B
06:28PM -34.0344 151.1989 348° North 177 204 1,300 -960 Descending FlightAware ADS-B
06:28PM -34.0207 151.1954 348° North 159 183 1,100 -780 Descending FlightAware ADS-B
06:29PM -34.0090 151.1923 348° North 142 163 800 -780 Descending FlightAware ADS-B
06:29PM -33.9856 151.1861 348° North 140 161 400 -780 Descending FlightAware ADS-B
06:30PM -33.9520 151.1770 347° North 78 90 -480 Descending FlightAware